Time;durP1;ratioP1;P1;durP2;ratioP2;P2;SDS_P1;SDS_P2;PMS_P1;PMS_P2;Temp;Humidity;BMP_temperature;BMP_pressure;BME280_temperature;BME280_humidity;BME280_pressure;Samples;Min_cycle;Max_cycle;Signal;HPM_P1;HPM_P2
2021/10/19 00:01:18;;;;;;;4.33;3.63;;;;;;;;;;5090847;28;20044;-42
2021/10/19 00:03:44;;;;;;;4.13;3.70;;;;;;;;;;5091014;28;20105;-42
2021/10/19 00:06:10;;;;;;;3.97;3.53;;;;;;;;;;5091128;28;20532;-41
2021/10/19 00:08:35;;;;;;;4.47;4.07;;;;;;;;;;5091098;28;20024;-41
2021/10/19 00:11:01;;;;;;;5.13;4.03;;;;;;;;;;5090845;28;20036;-41
2021/10/19 00:13:26;;;;;;;3.90;3.57;;;;;;;;;;5073052;28;20023;-40
2021/10/19 00:15:52;;;;;;;4.77;3.50;;;;;;;;;;5072797;28;20020;-41
2021/10/19 00:18:17;;;;;;;4.00;3.60;;;;;;;;;;5090734;28;20393;-39
2021/10/19 00:20:42;;;;;;;4.33;3.50;;;;;;;;;;5090824;28;20073;-40
2021/10/19 00:23:08;;;;;;;4.17;3.77;;;;;;;;;;5090914;28;20066;-39
2021/10/19 00:25:33;;;;;;;6.07;4.10;;;;;;;;;;5091000;28;20025;-43
2021/10/19 00:27:58;;;;;;;3.73;3.40;;;;;;;;;;5091100;28;20486;-40
2021/10/19 00:30:24;;;;;;;4.00;3.60;;;;;;;;;;5090892;28;20500;-40
2021/10/19 00:32:50;;;;;;;4.27;3.67;;;;;;;;;;5090845;28;20443;-40
2021/10/19 00:35:15;;;;;;;3.92;3.63;;;;;;;;;;5090850;28;20359;-41
2021/10/19 00:37:41;;;;;;;4.23;3.83;;;;;;;;;;5090919;28;20101;-41
2021/10/19 00:40:07;;;;;;;4.33;3.83;;;;;;;;;;5090847;28;20040;-40
2021/10/19 00:42:33;;;;;;;3.77;3.47;;;;;;;;;;5090670;28;20032;-41
2021/10/19 00:44:58;;;;;;;4.70;4.30;;;;;;;;;;5094384;28;20131;-40
2021/10/19 00:47:24;;;;;;;4.33;3.63;;;;;;;;;;5094578;28;20111;-40
2021/10/19 00:49:49;;;;;;;4.30;3.87;;;;;;;;;;5094602;28;20016;-41
2021/10/19 00:52:16;;;;;;;4.20;3.77;;;;;;;;;;5094189;28;20024;-40
2021/10/19 00:54:42;;;;;;;4.10;3.70;;;;;;;;;;5094349;28;20451;-44
2021/10/19 00:57:08;;;;;;;3.78;3.47;;;;;;;;;;5059660;28;20039;-42
2021/10/19 00:59:36;;;;;;;4.30;3.40;;;;;;;;;;5075992;28;20050;-41
2021/10/19 01:02:02;;;;;;;4.00;3.60;;;;;;;;;;5094096;28;20058;-41
2021/10/19 01:04:27;;;;;;;5.27;4.60;;;;;;;;;;5095592;28;20047;-45
2021/10/19 01:06:53;;;;;;;6.23;3.83;;;;;;;;;;5094226;28;20448;-41
2021/10/19 01:09:18;;;;;;;12.27;4.57;;;;;;;;;;5076048;28;20599;-45
2021/10/19 01:11:43;;;;;;;3.50;3.20;;;;;;;;;;5093814;28;20028;-43
2021/10/19 01:14:09;;;;;;;4.93;4.40;;;;;;;;;;5094076;28;20027;-41
2021/10/19 01:16:34;;;;;;;4.43;4.03;;;;;;;;;;5093500;28;20527;-41
2021/10/19 01:19:00;;;;;;;4.57;4.17;;;;;;;;;;5094291;28;20032;-46
2021/10/19 01:21:26;;;;;;;4.40;3.80;;;;;;;;;;5093798;28;20016;-44
2021/10/19 01:23:51;;;;;;;5.50;3.60;;;;;;;;;;5093748;28;20103;-46
2021/10/19 01:26:17;;;;;;;4.70;4.30;;;;;;;;;;5093910;28;20052;-46
2021/10/19 01:28:42;;;;;;;4.80;3.90;;;;;;;;;;5093677;28;20024;-40
2021/10/19 01:31:09;;;;;;;3.87;3.57;;;;;;;;;;5093581;28;20020;-43
2021/10/19 01:33:34;;;;;;;5.15;4.00;;;;;;;;;;5075352;28;20024;-44
2021/10/19 01:36:00;;;;;;;4.00;3.70;;;;;;;;;;5093482;28;20026;-40
2021/10/19 01:38:26;;;;;;;4.27;3.87;;;;;;;;;;5093300;28;20047;-41
2021/10/19 01:40:52;;;;;;;4.07;3.67;;;;;;;;;;5093278;28;20131;-42
2021/10/19 01:43:18;;;;;;;3.97;3.57;;;;;;;;;;5093273;28;20462;-45
2021/10/19 01:45:47;;;;;;;4.78;4.03;;;;;;;;;;5093202;28;20111;-41
2021/10/19 01:48:12;;;;;;;4.00;3.58;;;;;;;;;;5093390;28;20043;-42
2021/10/19 01:50:38;;;;;;;6.80;4.17;;;;;;;;;;5093448;28;20020;-41
2021/10/19 01:53:07;;;;;;;3.67;3.37;;;;;;;;;;5093056;28;20118;-42
2021/10/19 01:55:32;;;;;;;4.28;3.78;;;;;;;;;;5092444;28;20089;-41
2021/10/19 01:57:58;;;;;;;4.57;4.03;;;;;;;;;;5093177;28;20056;-43
2021/10/19 02:00:23;;;;;;;4.37;3.97;;;;;;;;;;5074974;28;20084;-43
2021/10/19 02:02:48;;;;;;;4.40;4.00;;;;;;;;;;5092934;28;20032;-44
2021/10/19 02:05:14;;;;;;;4.80;4.20;;;;;;;;;;5093072;28;20142;-45
2021/10/19 02:07:39;;;;;;;4.30;3.87;;;;;;;;;;5093027;28;20052;-46
2021/10/19 02:10:05;;;;;;;4.13;3.83;;;;;;;;;;5075013;28;20401;-43
2021/10/19 02:12:30;;;;;;;4.40;4.00;;;;;;;;;;5074055;28;20078;-42
2021/10/19 02:14:56;;;;;;;4.60;4.13;;;;;;;;;;5092342;28;20035;-43
2021/10/19 02:17:21;;;;;;;4.57;4.00;;;;;;;;;;5093240;28;20032;-44
2021/10/19 02:19:47;;;;;;;4.97;4.47;;;;;;;;;;5093820;28;20106;-45
2021/10/19 02:22:12;;;;;;;4.80;4.30;;;;;;;;;;5093417;28;20111;-41
2021/10/19 02:24:37;;;;;;;5.00;4.00;;;;;;;;;;5092505;28;20024;-41
2021/10/19 02:27:03;;;;;;;4.50;4.10;;;;;;;;;;5092519;28;20024;-40
2021/10/19 02:29:28;;;;;;;4.70;4.27;;;;;;;;;;5092496;28;20035;-43
2021/10/19 02:31:54;;;;;;;5.37;4.23;;;;;;;;;;5092368;28;20036;-40
2021/10/19 02:34:21;;;;;;;4.97;4.47;;;;;;;;;;5092463;28;20368;-41
2021/10/19 02:36:46;;;;;;;5.75;4.13;;;;;;;;;;5092222;28;20020;-44
2021/10/19 02:39:12;;;;;;;6.70;5.03;;;;;;;;;;5092475;28;20152;-45
2021/10/19 02:41:37;;;;;;;5.53;4.93;;;;;;;;;;5091488;28;20486;-40
2021/10/19 02:44:03;;;;;;;7.63;4.60;;;;;;;;;;5091363;28;20032;-40
2021/10/19 02:46:31;;;;;;;6.00;4.38;;;;;;;;;;5092242;28;20193;-40
2021/10/19 02:48:56;;;;;;;4.97;4.20;;;;;;;;;;5092188;28;20031;-40
2021/10/19 02:51:22;;;;;;;6.10;4.73;;;;;;;;;;5092133;28;20032;-40
2021/10/19 02:53:47;;;;;;;5.73;4.73;;;;;;;;;;5091840;28;20466;-40
2021/10/19 02:56:12;;;;;;;6.07;4.47;;;;;;;;;;5091858;28;20401;-40
2021/10/19 02:58:38;;;;;;;5.47;4.87;;;;;;;;;;5091991;28;20439;-40
2021/10/19 03:01:03;;;;;;;4.90;4.30;;;;;;;;;;5073682;28;20081;-40
2021/10/19 03:03:29;;;;;;;5.13;4.60;;;;;;;;;;5092068;28;20032;-40
2021/10/19 03:05:55;;;;;;;5.13;4.20;;;;;;;;;;5091260;28;20035;-39
2021/10/19 03:08:20;;;;;;;5.47;4.97;;;;;;;;;;5091765;28;20032;-42
2021/10/19 03:10:45;;;;;;;5.17;4.63;;;;;;;;;;5092133;28;20108;-41
2021/10/19 03:13:11;;;;;;;5.33;4.77;;;;;;;;;;5091579;28;20548;-40
2021/10/19 03:15:36;;;;;;;4.93;4.43;;;;;;;;;;5091571;28;20359;-40
2021/10/19 03:18:01;;;;;;;5.50;4.87;;;;;;;;;;5091895;28;20496;-40
2021/10/19 03:20:29;;;;;;;5.37;4.87;;;;;;;;;;5091841;28;20429;-40
2021/10/19 03:22:54;;;;;;;7.03;4.80;;;;;;;;;;5091540;28;20032;-41
2021/10/19 03:25:20;;;;;;;6.60;4.80;;;;;;;;;;5091570;28;20089;-40
2021/10/19 03:27:45;;;;;;;5.93;4.90;;;;;;;;;;5091693;28;20061;-40
2021/10/19 03:30:10;;;;;;;5.37;4.87;;;;;;;;;;5091338;28;20367;-40
2021/10/19 03:32:36;;;;;;;5.60;4.70;;;;;;;;;;5091513;28;20106;-45
2021/10/19 03:35:01;;;;;;;4.97;4.47;;;;;;;;;;5092270;28;20020;-46
2021/10/19 03:37:27;;;;;;;6.40;4.83;;;;;;;;;;5073083;28;20032;-42
2021/10/19 03:39:52;;;;;;;5.87;4.87;;;;;;;;;;5091425;28;20020;-42
2021/10/19 03:42:17;;;;;;;5.77;4.83;;;;;;;;;;5091234;28;20024;-45
2021/10/19 03:44:43;;;;;;;6.17;4.40;;;;;;;;;;5091176;28;20149;-41
2021/10/19 03:47:08;;;;;;;5.13;4.63;;;;;;;;;;5091349;28;20035;-41
2021/10/19 03:49:34;;;;;;;5.80;5.03;;;;;;;;;;5091378;28;20020;-42
2021/10/19 03:51:59;;;;;;;6.23;4.50;;;;;;;;;;5091525;28;20103;-41
2021/10/19 03:54:24;;;;;;;5.80;5.30;;;;;;;;;;5072877;28;20379;-42
2021/10/19 03:56:50;;;;;;;6.37;4.93;;;;;;;;;;5091003;28;20386;-40
2021/10/19 03:59:15;;;;;;;6.03;4.83;;;;;;;;;;5091339;28;20085;-43
2021/10/19 04:01:40;;;;;;;6.13;4.90;;;;;;;;;;5072934;28;20394;-43
2021/10/19 04:04:06;;;;;;;7.37;5.70;;;;;;;;;;5090968;28;20035;-41
2021/10/19 04:06:31;;;;;;;6.77;5.20;;;;;;;;;;5091113;28;20028;-41
2021/10/19 04:08:57;;;;;;;6.67;5.50;;;;;;;;;;5091082;28;20034;-44
2021/10/19 04:11:22;;;;;;;5.57;5.00;;;;;;;;;;5091260;28;20024;-42
2021/10/19 04:13:47;;;;;;;5.73;4.80;;;;;;;;;;5090756;28;20474;-41
2021/10/19 04:16:13;;;;;;;7.50;5.73;;;;;;;;;;5072827;28;20062;-43
2021/10/19 04:18:38;;;;;;;5.80;5.20;;;;;;;;;;5094696;28;20024;-43
2021/10/19 04:21:03;;;;;;;6.77;5.20;;;;;;;;;;5076805;28;20034;-45
2021/10/19 04:23:29;;;;;;;5.03;4.40;;;;;;;;;;5076586;28;20039;-42
2021/10/19 04:25:54;;;;;;;6.07;4.83;;;;;;;;;;5094856;28;20095;-40
2021/10/19 04:28:20;;;;;;;5.30;4.53;;;;;;;;;;5095200;28;20073;-40
2021/10/19 04:30:47;;;;;;;7.23;5.03;;;;;;;;;;5094993;28;20444;-40
2021/10/19 04:33:12;;;;;;;5.90;5.30;;;;;;;;;;5076804;28;20093;-40
2021/10/19 04:35:38;;;;;;;5.93;5.30;;;;;;;;;;5094353;28;20477;-41
2021/10/19 04:38:03;;;;;;;6.13;5.43;;;;;;;;;;5094785;28;20441;-43
2021/10/19 04:40:28;;;;;;;6.67;5.43;;;;;;;;;;5094794;28;20051;-42
2021/10/19 04:42:54;;;;;;;6.57;5.20;;;;;;;;;;5076596;28;20024;-42
2021/10/19 04:45:20;;;;;;;5.23;4.73;;;;;;;;;;5094376;28;20040;-42
2021/10/19 04:47:45;;;;;;;5.25;4.75;;;;;;;;;;5094757;28;20032;-40
2021/10/19 04:50:11;;;;;;;5.43;4.70;;;;;;;;;;5095846;28;20081;-46
2021/10/19 04:52:36;;;;;;;6.00;5.40;;;;;;;;;;5094308;28;20020;-44
2021/10/19 04:55:02;;;;;;;6.17;5.20;;;;;;;;;;5094068;28;20466;-42
2021/10/19 04:57:27;;;;;;;5.83;5.23;;;;;;;;;;5094374;28;20067;-41
2021/10/19 04:59:53;;;;;;;7.37;4.80;;;;;;;;;;5094391;28;20040;-42
2021/10/19 05:02:18;;;;;;;6.40;5.60;;;;;;;;;;5094164;28;20024;-40
2021/10/19 05:04:43;;;;;;;6.20;5.37;;;;;;;;;;5094043;28;20031;-43
2021/10/19 05:07:09;;;;;;;6.77;5.30;;;;;;;;;;5094225;28;20016;-42
2021/10/19 05:09:34;;;;;;;5.73;5.10;;;;;;;;;;5094145;28;20035;-43
2021/10/19 05:12:00;;;;;;;6.93;5.67;;;;;;;;;;5094037;28;20028;-40
2021/10/19 05:14:25;;;;;;;5.53;5.03;;;;;;;;;;5093857;28;20035;-44
2021/10/19 05:16:50;;;;;;;6.90;5.70;;;;;;;;;;5093914;28;20506;-41
2021/10/19 05:19:16;;;;;;;6.67;5.60;;;;;;;;;;5094107;28;20552;-44
2021/10/19 05:21:41;;;;;;;7.20;5.93;;;;;;;;;;5093541;28;20024;-42
2021/10/19 05:24:07;;;;;;;6.83;5.63;;;;;;;;;;5094043;28;20032;-41
2021/10/19 05:26:32;;;;;;;6.00;5.40;;;;;;;;;;5093359;28;20081;-42
2021/10/19 05:28:57;;;;;;;7.77;5.73;;;;;;;;;;5074748;28;20024;-41
2021/10/19 05:31:23;;;;;;;6.87;5.40;;;;;;;;;;5093537;28;20027;-40
2021/10/19 05:33:48;;;;;;;6.83;5.17;;;;;;;;;;5075596;28;20024;-42
2021/10/19 05:36:13;;;;;;;7.40;6.13;;;;;;;;;;5093523;28;20069;-41
2021/10/19 05:38:39;;;;;;;7.23;5.60;;;;;;;;;;5093714;28;20453;-44
2021/10/19 05:41:04;;;;;;;6.93;5.27;;;;;;;;;;5093544;28;20077;-41
2021/10/19 05:43:30;;;;;;;6.73;4.87;;;;;;;;;;5075644;28;20028;-42
2021/10/19 05:45:55;;;;;;;5.73;5.20;;;;;;;;;;5093485;28;20524;-41
2021/10/19 05:48:20;;;;;;;8.23;5.83;;;;;;;;;;5093767;28;20486;-42
2021/10/19 05:50:46;;;;;;;5.80;5.10;;;;;;;;;;5093490;28;20024;-40
2021/10/19 05:53:11;;;;;;;6.37;5.60;;;;;;;;;;5093212;28;20024;-41
2021/10/19 05:55:39;;;;;;;6.57;5.10;;;;;;;;;;5093132;28;20020;-40
2021/10/19 05:58:05;;;;;;;6.30;5.68;;;;;;;;;;5093140;28;20024;-41
2021/10/19 06:00:30;;;;;;;6.83;5.70;;;;;;;;;;5092996;28;20154;-42
2021/10/19 06:02:56;;;;;;;6.27;5.40;;;;;;;;;;5092413;28;20108;-42
2021/10/19 06:05:22;;;;;;;9.40;5.97;;;;;;;;;;5093439;28;20085;-39
2021/10/19 06:07:47;;;;;;;11.50;6.73;;;;;;;;;;5093107;28;20043;-43
2021/10/19 06:10:12;;;;;;;6.67;5.80;;;;;;;;;;5091892;28;20024;-39
2021/10/19 06:12:38;;;;;;;9.97;6.17;;;;;;;;;;5081677;28;20089;-42
2021/10/19 06:15:03;;;;;;;7.13;6.07;;;;;;;;;;5092899;28;20057;-40
2021/10/19 06:17:29;;;;;;;7.27;5.90;;;;;;;;;;5091981;28;20093;-41
2021/10/19 06:19:54;;;;;;;7.33;6.07;;;;;;;;;;5092675;28;20075;-40
2021/10/19 06:22:19;;;;;;;8.07;5.90;;;;;;;;;;5092358;28;20034;-41
2021/10/19 06:24:45;;;;;;;9.07;5.47;;;;;;;;;;5092307;28;20032;-41
2021/10/19 06:27:10;;;;;;;7.90;5.50;;;;;;;;;;5087089;28;20028;-40
2021/10/19 06:29:35;;;;;;;8.67;6.10;;;;;;;;;;5081193;28;20043;-40
2021/10/19 06:32:01;;;;;;;10.43;6.40;;;;;;;;;;5073610;28;20471;-41
2021/10/19 06:34:26;;;;;;;7.80;5.97;;;;;;;;;;5091988;28;20500;-41
2021/10/19 06:36:51;;;;;;;10.40;6.07;;;;;;;;;;5091863;28;20024;-40
2021/10/19 06:39:17;;;;;;;7.97;6.67;;;;;;;;;;5091239;28;20032;-41
2021/10/19 06:41:42;;;;;;;22.37;7.40;;;;;;;;;;5091173;28;20554;-40
2021/10/19 06:44:07;;;;;;;12.47;7.27;;;;;;;;;;5091028;28;20027;-41
2021/10/19 06:46:33;;;;;;;10.27;7.37;;;;;;;;;;5090307;28;20044;-41
2021/10/19 06:48:58;;;;;;;9.87;6.30;;;;;;;;;;5085152;28;20047;-41
2021/10/19 06:51:23;;;;;;;11.03;7.17;;;;;;;;;;5075375;28;20036;-41
2021/10/19 06:53:49;;;;;;;9.43;6.40;;;;;;;;;;5071833;28;20109;-40
2021/10/19 06:56:14;;;;;;;8.50;6.30;;;;;;;;;;5087639;28;20458;-41
2021/10/19 06:58:40;;;;;;;10.37;7.00;;;;;;;;;;5091872;28;20414;-41
2021/10/19 07:01:05;;;;;;;9.17;7.00;;;;;;;;;;5090479;28;20067;-41
2021/10/19 07:03:31;;;;;;;11.30;7.30;;;;;;;;;;5084019;28;20039;-40
2021/10/19 07:06:00;;;;;;;10.70;6.97;;;;;;;;;;5075665;28;20060;-40
2021/10/19 07:08:26;;;;;;;8.77;7.15;;;;;;;;;;5081266;28;20282;-40
2021/10/19 07:10:51;;;;;;;11.37;7.37;;;;;;;;;;5072925;28;20107;-41
2021/10/19 07:13:22;;;;;;;9.87;6.87;;;;;;;;;;5091239;28;20516;-41
2021/10/19 07:15:48;;;;;;;10.63;6.47;;;;;;;;;;5091530;28;20418;-41
2021/10/19 07:18:13;;;;;;;9.13;6.77;;;;;;;;;;5091646;28;20028;-42
2021/10/19 07:20:39;;;;;;;7.87;6.90;;;;;;;;;;5091782;28;20103;-46
2021/10/19 07:23:04;;;;;;;10.53;7.17;;;;;;;;;;5091628;28;20445;-44
2021/10/19 07:25:29;;;;;;;9.37;6.97;;;;;;;;;;5091387;28;20077;-41
2021/10/19 07:27:58;;;;;;;9.47;6.97;;;;;;;;;;5056517;28;20032;-42
2021/10/19 07:30:24;;;;;;;11.30;6.90;;;;;;;;;;5071111;28;20403;-41
2021/10/19 07:32:49;;;;;;;9.67;6.70;;;;;;;;;;5071268;28;20052;-40
2021/10/19 07:35:16;;;;;;;9.43;6.83;;;;;;;;;;5070620;28;20304;-40
2021/10/19 07:37:42;;;;;;;9.02;6.68;;;;;;;;;;5078393;28;20023;-40
2021/10/19 07:40:08;;;;;;;9.27;7.13;;;;;;;;;;5056366;28;20108;-41
2021/10/19 07:42:34;;;;;;;8.52;6.60;;;;;;;;;;5072430;28;20108;-41
2021/10/19 07:45:03;;;;;;;9.17;7.13;;;;;;;;;;5090309;28;20099;-41
2021/10/19 07:47:29;;;;;;;8.90;7.00;;;;;;;;;;5090768;28;20036;-41
2021/10/19 07:49:54;;;;;;;10.70;8.27;;;;;;;;;;5083568;28;20043;-40
2021/10/19 07:52:19;;;;;;;8.33;6.80;;;;;;;;;;5092415;28;20078;-40
2021/10/19 07:54:45;;;;;;;9.57;7.00;;;;;;;;;;5094945;28;20489;-42
2021/10/19 07:57:10;;;;;;;11.17;6.93;;;;;;;;;;5094910;28;20035;-40
2021/10/19 07:59:36;;;;;;;8.93;6.47;;;;;;;;;;5094542;28;20046;-41
2021/10/19 08:02:01;;;;;;;10.33;7.53;;;;;;;;;;5064956;28;20123;-41
2021/10/19 08:04:26;;;;;;;11.57;8.03;;;;;;;;;;5083209;28;20099;-40
2021/10/19 08:06:52;;;;;;;12.93;8.07;;;;;;;;;;5057956;28;20023;-41
2021/10/19 08:09:17;;;;;;;12.73;9.20;;;;;;;;;;5074989;28;20025;-40
2021/10/19 08:11:43;;;;;;;14.10;9.93;;;;;;;;;;5074673;28;20017;-41
2021/10/19 08:14:09;;;;;;;14.10;9.50;;;;;;;;;;5056276;28;20024;-42
2021/10/19 08:16:34;;;;;;;13.40;9.70;;;;;;;;;;5074915;28;20029;-41
2021/10/19 08:18:59;;;;;;;13.10;8.80;;;;;;;;;;5056914;28;20024;-41
2021/10/19 08:21:25;;;;;;;14.13;9.63;;;;;;;;;;5074847;28;20027;-42
2021/10/19 08:23:51;;;;;;;11.20;8.70;;;;;;;;;;5074361;28;20033;-41
2021/10/19 08:26:16;;;;;;;11.43;8.57;;;;;;;;;;5088019;28;20028;-43
2021/10/19 08:28:43;;;;;;;11.03;8.37;;;;;;;;;;5094909;28;20031;-42
2021/10/19 08:31:11;;;;;;;12.75;9.07;;;;;;;;;;5094733;28;20482;-44
2021/10/19 08:33:36;;;;;;;11.45;8.88;;;;;;;;;;5094423;28;20028;-43
2021/10/19 08:36:02;;;;;;;12.73;8.93;;;;;;;;;;5096034;28;20028;-44
2021/10/19 08:38:27;;;;;;;13.47;9.10;;;;;;;;;;5094004;28;20031;-44
2021/10/19 08:40:55;;;;;;;12.53;8.07;;;;;;;;;;5096217;28;20024;-43
2021/10/19 08:43:21;;;;;;;10.93;8.23;;;;;;;;;;5093269;28;20035;-43
2021/10/19 08:45:46;;;;;;;10.93;7.93;;;;;;;;;;5094297;28;20044;-46
2021/10/19 08:48:12;;;;;;;9.63;7.90;;;;;;;;;;5094705;28;20020;-43
2021/10/19 08:50:37;;;;;;;12.30;9.00;;;;;;;;;;5094220;28;20028;-42
2021/10/19 08:53:02;;;;;;;10.93;7.60;;;;;;;;;;5094005;28;20028;-42
2021/10/19 08:55:28;;;;;;;12.63;8.33;;;;;;;;;;5093932;28;20026;-42
2021/10/19 08:57:56;;;;;;;10.67;8.37;;;;;;;;;;5092349;28;20035;-42
2021/10/19 09:00:27;;;;;;;12.50;8.15;;;;;;;;;;5092249;28;20024;-42
2021/10/19 09:02:53;;;;;;;13.07;8.07;;;;;;;;;;5092212;28;20059;-42
2021/10/19 09:05:22;;;;;;;9.53;8.00;;;;;;;;;;5091245;28;20049;-42
2021/10/19 09:08:07;;;;;;;14.43;8.13;;;;;;;;;;5092232;28;20089;-41
2021/10/19 09:10:34;;;;;;;11.75;8.10;;;;;;;;;;5073859;28;20019;-44
2021/10/19 09:12:59;;;;;;;;;;;;;;;;;;5094722;28;20103;-42
2021/10/19 09:15:29;;;;;;;11.20;8.07;;;;;;;;;;5075524;28;20006;-42
2021/10/19 09:17:59;;;;;;;9.02;7.50;;;;;;;;;;5094033;28;20073;-43
2021/10/19 09:20:24;;;;;;;10.80;8.30;;;;;;;;;;5093864;28;20027;-41
2021/10/19 09:22:55;;;;;;;10.83;7.73;;;;;;;;;;5094053;28;20193;-41
2021/10/19 09:25:28;;;;;;;9.43;7.68;;;;;;;;;;5075490;28;20389;-46
2021/10/19 09:27:55;;;;;;;9.85;7.75;;;;;;;;;;5075759;28;20509;-46
2021/10/19 09:30:30;;;;;;;8.75;7.18;;;;;;;;;;5093736;28;20020;-44
2021/10/19 09:32:55;;;;;;;10.13;8.02;;;;;;;;;;5094035;28;20088;-42
2021/10/19 09:35:21;;;;;;;11.87;7.87;;;;;;;;;;5093455;28;20541;-43
2021/10/19 09:38:00;;;;;;;10.40;7.27;;;;;;;;;;5094258;28;20134;-42
2021/10/19 09:40:35;;;;;;;9.65;7.93;;;;;;;;;;5093742;28;20051;-41
2021/10/19 09:43:02;;;;;;;9.25;7.03;;;;;;;;;;5093768;28;20077;-41
2021/10/19 09:45:28;;;;;;;9.85;7.30;;;;;;;;;;5093278;28;20051;-44
2021/10/19 09:47:55;;;;;;;9.07;7.67;;;;;;;;;;5088605;28;20020;-43
2021/10/19 09:50:20;;;;;;;10.95;7.38;;;;;;;;;;5079284;28;20028;-47
2021/10/19 09:52:46;;;;;;;8.20;7.27;;;;;;;;;;5040769;28;20086;-45
2021/10/19 09:55:13;;;;;;;12.40;7.78;;;;;;;;;;5067849;28;20039;-46
2021/10/19 09:57:38;;;;;;;10.85;7.43;;;;;;;;;;5072901;28;20025;-41
2021/10/19 10:00:07;;;;;;;8.77;7.37;;;;;;;;;;5072902;28;20528;-45
2021/10/19 10:02:33;;;;;;;9.98;7.03;;;;;;;;;;5072809;28;20028;-42
2021/10/19 10:05:00;;;;;;;11.95;7.05;;;;;;;;;;5072772;28;20023;-41
2021/10/19 10:07:30;;;;;;;9.77;7.10;;;;;;;;;;5072669;28;20035;-41
2021/10/19 10:09:57;;;;;;;11.20;7.88;;;;;;;;;;5072963;28;20386;-41
2021/10/19 10:12:30;;;;;;;9.70;7.07;;;;;;;;;;5072887;28;20425;-42
2021/10/19 10:14:56;;;;;;;9.00;6.57;;;;;;;;;;5072375;28;20032;-43
2021/10/19 10:17:21;;;;;;;9.60;7.10;;;;;;;;;;5072520;28;20437;-41
2021/10/19 10:19:46;;;;;;;9.47;7.40;;;;;;;;;;5081881;28;20436;-43
2021/10/19 10:22:17;;;;;;;8.30;7.07;;;;;;;;;;5092694;28;20024;-43
2021/10/19 10:24:46;;;;;;;9.27;6.90;;;;;;;;;;5092653;28;20390;-41
2021/10/19 10:27:12;;;;;;;8.13;7.22;;;;;;;;;;5092574;28;20024;-42
2021/10/19 10:29:42;;;;;;;10.03;7.23;;;;;;;;;;5092769;28;20027;-44
2021/10/19 10:32:18;;;;;;;8.18;7.07;;;;;;;;;;5092437;28;20036;-44
2021/10/19 10:34:44;;;;;;;8.52;7.22;;;;;;;;;;5092431;28;20027;-42
2021/10/19 10:37:11;;;;;;;10.37;7.07;;;;;;;;;;5072505;28;20449;-41
2021/10/19 10:39:39;;;;;;;11.32;7.22;;;;;;;;;;5072016;28;20690;-41
2021/10/19 10:42:09;;;;;;;10.50;7.38;;;;;;;;;;5069534;28;20019;-42
2021/10/19 10:44:36;;;;;;;8.70;6.70;;;;;;;;;;5092290;28;20024;-42
2021/10/19 10:47:05;;;;;;;10.95;7.72;;;;;;;;;;5073679;28;20032;-41
2021/10/19 10:49:33;;;;;;;9.43;6.55;;;;;;;;;;5092217;28;20160;-44
2021/10/19 10:52:00;;;;;;;10.57;7.32;;;;;;;;;;5084725;28;20027;-41
2021/10/19 10:54:25;;;;;;;9.82;7.30;;;;;;;;;;5082323;28;20114;-41
2021/10/19 10:56:52;;;;;;;10.90;7.53;;;;;;;;;;5073702;28;20118;-44
2021/10/19 10:59:24;;;;;;;11.20;7.55;;;;;;;;;;5092163;28;20028;-41
2021/10/19 11:01:50;;;;;;;10.73;7.88;;;;;;;;;;5083773;28;20487;-43
2021/10/19 11:04:15;;;;;;;15.77;8.00;;;;;;;;;;5081075;28;20517;-42
2021/10/19 11:06:41;;;;;;;12.20;7.40;;;;;;;;;;5088235;28;20016;-41
2021/10/19 11:09:08;;;;;;;12.57;7.70;;;;;;;;;;5083439;28;20035;-41
2021/10/19 11:11:36;;;;;;;;;;;;;;;;;;5078802;28;20438;-43
2021/10/19 11:14:03;;;;;;;8.27;6.38;;;;;;;;;;5066516;28;19908;-44
2021/10/19 11:16:48;;;;;;;8.77;6.63;;;;;;;;;;5084178;28;20537;-42
2021/10/19 11:19:18;;;;;;;7.80;6.30;;;;;;;;;;5080039;28;20035;-43
2021/10/19 11:21:43;;;;;;;10.80;6.85;;;;;;;;;;5084258;28;20040;-43
2021/10/19 11:24:09;;;;;;;7.63;6.27;;;;;;;;;;5080847;28;20036;-42
2021/10/19 11:26:35;;;;;;;8.83;6.40;;;;;;;;;;5084924;28;20024;-44
2021/10/19 11:29:00;;;;;;;7.77;6.00;;;;;;;;;;5085588;28;20028;-45
2021/10/19 11:31:27;;;;;;;9.80;5.63;;;;;;;;;;5089747;28;20028;-45
2021/10/19 11:33:53;;;;;;;8.00;5.97;;;;;;;;;;5089226;28;20024;-42
2021/10/19 11:36:19;;;;;;;6.40;5.80;;;;;;;;;;5088902;28;20409;-46
2021/10/19 11:38:45;;;;;;;6.47;5.77;;;;;;;;;;5070271;28;20123;-41
2021/10/19 11:41:11;;;;;;;;;;;;;;;;;;5089725;28;20051;-43
2021/10/19 11:43:40;;;;;;;7.80;6.50;;;;;;;;;;5089370;28;19977;-41
2021/10/19 11:46:06;;;;;;;8.15;6.55;;;;;;;;;;5089749;28;20036;-42
2021/10/19 11:48:32;;;;;;;6.70;6.00;;;;;;;;;;5114617;22;20040;-35
2021/10/19 11:50:58;;;;;;;8.37;6.33;;;;;;;;;;5072830;28;20028;-35
2021/10/19 11:53:23;;;;;;;7.77;6.50;;;;;;;;;;5072912;28;20028;-35
2021/10/19 11:55:53;;;;;;;8.43;6.57;;;;;;;;;;5090953;28;20070;-36
2021/10/19 11:58:22;;;;;;;8.90;6.60;;;;;;;;;;5075716;28;20111;-35
2021/10/19 12:00:50;;;;;;;7.22;6.30;;;;;;;;;;5070816;28;20037;-35
2021/10/19 12:03:15;;;;;;;8.35;7.10;;;;;;;;;;5070631;28;20036;-35
2021/10/19 12:05:42;;;;;;;8.80;5.90;;;;;;;;;;5068926;28;20021;-35
2021/10/19 12:08:09;;;;;;;8.35;6.28;;;;;;;;;;5051116;28;20441;-35
2021/10/19 12:10:34;;;;;;;6.80;6.00;;;;;;;;;;5052738;28;20478;-36
2021/10/19 12:13:02;;;;;;;8.47;6.17;;;;;;;;;;5052389;28;20138;-35
2021/10/19 12:15:30;;;;;;;9.05;6.82;;;;;;;;;;5063541;28;20487;-35
2021/10/19 12:17:59;;;;;;;8.07;6.55;;;;;;;;;;5054127;28;20017;-35
2021/10/19 12:20:26;;;;;;;6.50;5.80;;;;;;;;;;5070717;28;20111;-36
2021/10/19 12:22:56;;;;;;;8.15;6.22;;;;;;;;;;5070991;28;20059;-36
2021/10/19 12:25:21;;;;;;;7.43;6.45;;;;;;;;;;5070344;28;20034;-35
2021/10/19 12:27:46;;;;;;;8.10;6.40;;;;;;;;;;5070080;28;20024;-35
2021/10/19 12:30:13;;;;;;;7.53;6.50;;;;;;;;;;5069296;28;20028;-35
2021/10/19 12:32:39;;;;;;;8.23;6.25;;;;;;;;;;5070715;28;20047;-36
2021/10/19 12:35:04;;;;;;;7.70;6.00;;;;;;;;;;5070973;28;20371;-36
2021/10/19 12:37:33;;;;;;;6.03;5.43;;;;;;;;;;5066065;28;20064;-36
2021/10/19 12:40:00;;;;;;;7.05;6.38;;;;;;;;;;5043571;28;20142;-37
2021/10/19 12:42:26;;;;;;;7.82;6.20;;;;;;;;;;5065185;28;20107;-38
2021/10/19 12:44:51;;;;;;;8.07;6.20;;;;;;;;;;5073268;28;20415;-35
2021/10/19 12:47:16;;;;;;;6.87;6.27;;;;;;;;;;5074193;28;20044;-36
2021/10/19 12:49:42;;;;;;;7.47;6.30;;;;;;;;;;5066224;28;20021;-37
2021/10/19 12:52:07;;;;;;;6.77;6.00;;;;;;;;;;5066340;28;20149;-37
2021/10/19 12:54:33;;;;;;;6.37;5.77;;;;;;;;;;5072398;28;20052;-37
2021/10/19 12:56:58;;;;;;;7.80;6.37;;;;;;;;;;5074849;28;20103;-36
2021/10/19 12:59:23;;;;;;;7.03;6.17;;;;;;;;;;5046103;28;20036;-36
2021/10/19 13:01:49;;;;;;;7.33;6.03;;;;;;;;;;5067187;28;20045;-36
2021/10/19 13:04:14;;;;;;;8.80;6.57;;;;;;;;;;5075137;28;20055;-36
2021/10/19 13:06:40;;;;;;;7.30;6.30;;;;;;;;;;5056742;28;20074;-37
2021/10/19 13:09:06;;;;;;;8.53;5.93;;;;;;;;;;5060056;28;20031;-37
2021/10/19 13:11:31;;;;;;;10.67;6.73;;;;;;;;;;5063604;28;20027;-38
2021/10/19 13:13:57;;;;;;;6.67;5.93;;;;;;;;;;5074281;28;20029;-38
2021/10/19 13:16:22;;;;;;;8.13;6.73;;;;;;;;;;5074662;28;20064;-37
2021/10/19 13:18:48;;;;;;;8.33;6.57;;;;;;;;;;5075895;28;20025;-37
2021/10/19 13:21:14;;;;;;;9.43;6.53;;;;;;;;;;5056919;28;20029;-36
2021/10/19 13:23:40;;;;;;;7.90;6.70;;;;;;;;;;5056686;28;20417;-36
2021/10/19 13:26:05;;;;;;;7.13;6.43;;;;;;;;;;5055082;28;20422;-37
2021/10/19 13:28:31;;;;;;;7.27;6.43;;;;;;;;;;5054943;28;20025;-37
2021/10/19 13:30:57;;;;;;;10.03;6.47;;;;;;;;;;5053590;28;20029;-37
2021/10/19 13:33:22;;;;;;;9.50;6.50;;;;;;;;;;5046756;28;20029;-37
2021/10/19 13:35:47;;;;;;;7.70;6.90;;;;;;;;;;5075389;28;20028;-36
2021/10/19 13:38:13;;;;;;;6.83;6.13;;;;;;;;;;5075132;28;20031;-36
2021/10/19 13:40:39;;;;;;;9.00;6.70;;;;;;;;;;5074821;28;20048;-37
2021/10/19 13:43:05;;;;;;;8.18;6.28;;;;;;;;;;5049719;28;20066;-38
2021/10/19 13:45:31;;;;;;;10.30;6.50;;;;;;;;;;5041535;28;20466;-37
2021/10/19 13:47:56;;;;;;;7.33;6.40;;;;;;;;;;5054386;28;20056;-36
2021/10/19 13:50:23;;;;;;;8.63;6.47;;;;;;;;;;5053987;28;20078;-36
2021/10/19 13:52:48;;;;;;;8.93;6.45;;;;;;;;;;5052591;28;20028;-37
2021/10/19 13:55:15;;;;;;;8.17;7.00;;;;;;;;;;5045045;28;20029;-37
2021/10/19 13:57:41;;;;;;;7.80;6.63;;;;;;;;;;5062860;28;20024;-36
2021/10/19 14:00:07;;;;;;;8.20;6.07;;;;;;;;;;5073546;28;20043;-36
2021/10/19 14:02:33;;;;;;;7.72;6.20;;;;;;;;;;5054956;28;20115;-36
2021/10/19 14:04:58;;;;;;;7.87;6.37;;;;;;;;;;5058390;28;20107;-37
2021/10/19 14:07:25;;;;;;;8.73;6.03;;;;;;;;;;5067390;28;20500;-36
2021/10/19 14:09:50;;;;;;;8.35;6.15;;;;;;;;;;5072653;28;20452;-36
2021/10/19 14:12:15;;;;;;;6.37;5.77;;;;;;;;;;5054993;28;20111;-36
2021/10/19 14:14:41;;;;;;;9.20;6.20;;;;;;;;;;5054669;28;20032;-37
2021/10/19 14:17:06;;;;;;;6.50;5.90;;;;;;;;;;5043086;28;20024;-37
2021/10/19 14:19:32;;;;;;;8.13;5.87;;;;;;;;;;5072366;28;20028;-37
2021/10/19 14:21:57;;;;;;;7.80;6.23;;;;;;;;;;5072601;28;20074;-36
2021/10/19 14:24:22;;;;;;;8.80;6.00;;;;;;;;;;5072412;28;20112;-36
2021/10/19 14:26:48;;;;;;;7.30;5.83;;;;;;;;;;5037293;28;20036;-37
2021/10/19 14:29:14;;;;;;;9.27;6.20;;;;;;;;;;5053617;28;20048;-37
2021/10/19 14:31:42;;;;;;;8.23;6.45;;;;;;;;;;5043311;28;20031;-36
2021/10/19 14:34:09;;;;;;;8.93;6.20;;;;;;;;;;5072343;28;20036;-36